Latest Weather Observations for Murrurundi Gap

IDN60801

Issued at 5:35 pm EDT Saturday 25 October 2014 (issued every 30 minutes, with the page automatically refreshed every 10 minutes)

About weather observations | Map of weather stations | Latest weather observations for NSW | Other Formats
Station Details ID: 061392 Name: MURRURUNDI GAP AWS Lat: -31.74 Lon: 150.79 Height: 729.4 m
Data from the previous 72 hours. | See also: Recent months for locations in New South Wales
Date/Time
EDT
Temp
°C
App
Temp
°C
Dew
Point
Rel
Hum
%
Delta-T
°C
Wind Press
QNH
hPa
Press
MSL
hPa
Rain
since 9 am
mm
Dir
 
Spd
km/h
Gust
km/h
Spd
kts
Gust
kts
25/05:30pm 29.3 26.1 3.3 19 13.5 S 9 15 5 8 1016.6 1014.5 0.0
25/05:00pm 29.5 24.2 1.9 17 14.0 WNW 19 28 10 15 1016.5 1014.4 0.0
25/04:41pm 28.2 20.5 2.4 19 13.1 SSE 32 41 17 22 1016.7 1014.6 0.0
25/04:30pm 29.0 25.9 3.8 20 13.2 SSE 9 15 5 8 1016.6 1014.5 0.0
25/04:00pm 29.9 26.7 3.0 18 14.0 S 9 20 5 11 1016.6 1014.5 0.0
25/03:30pm 31.2 26.7 2.4 16 14.9 WNW 15 24 8 13 1016.9 1014.8 0.0
25/03:00pm 31.1 25.8 3.2 17 14.6 SE 20 28 11 15 1017.3 1015.1 0.0
25/02:30pm 30.8 27.9 4.5 19 14.1 S 9 17 5 9 1017.9 1015.8 0.0
25/02:00pm 30.7 26.7 2.9 17 14.5 WSW 13 19 7 10 1018.3 1016.2 0.0
25/01:30pm 29.7 24.1 1.2 16 14.4 SSE 20 22 11 12 1018.7 1016.5 0.0
25/01:00pm 30.2 25.8 2.5 17 14.3 E 15 20 8 11 1018.9 1016.8 0.0
25/12:30pm 29.5 24.7 2.7 18 13.8 E 17 26 9 14 1019.3 1017.2 0.0
25/12:00pm 29.5 25.8 4.2 20 13.4 E 13 19 7 10 1019.7 1017.6 0.0
25/11:30am 28.5 23.2 1.9 18 13.5 S 19 28 10 15 1020.2 1018.1 0.0
25/11:00am 27.5 23.1 2.6 20 12.6 E 15 22 8 12 1020.4 1018.3 0.0
25/10:30am 27.0 24.2 5.3 25 11.5 NNW 9 15 5 8 1020.5 1018.4 0.0
25/10:00am 25.1 21.4 6.3 30 10.0 N 15 19 8 10 1020.6 1018.5 0.0
25/09:30am 24.4 20.5 7.1 33 9.4 NW 17 22 9 12 1020.4 1018.3 0.0
25/09:00am 23.4 19.6 7.5 36 8.6 NW 17 22 9 12 1020.3 1018.2 0.0
25/08:30am 22.7 17.6 7.7 38 8.1 NNW 24 30 13 16 1019.9 1017.8 0.0
25/08:00am 21.8 17.6 7.6 40 7.6 NW 19 24 10 13 1019.9 1017.8 0.0
25/07:30am 20.4 17.5 8.1 45 6.6 NW 13 17 7 9 1019.8 1017.7 0.0
25/07:00am 19.7 15.9 7.4 45 6.5 WNW 17 20 9 11 1019.2 1017.1 0.0
25/06:30am 20.0 15.8 7.4 44 6.7 NNW 19 24 10 13 1018.8 1016.6 0.0
25/06:00am 20.6 16.3 7.2 42 7.1 NW 19 22 10 12 1018.5 1016.4 0.0
25/05:30am 20.1 15.6 7.1 43 6.9 N 20 28 11 15 1018.2 1016.1 0.0
25/05:00am 21.3 16.1 7.2 40 7.5 NNW 24 30 13 16 1017.9 1015.8 0.0
25/04:30am 21.4 16.1 6.9 39 7.7 N 24 30 13 16 1017.7 1015.6 0.0
25/04:00am 21.3 16.4 6.8 39 7.7 NNW 22 28 12 15 1017.6 1015.4 0.0
25/03:30am 22.1 17.2 6.7 37 8.2 NNW 22 30 12 16 1017.5 1015.3 0.0
25/03:00am 22.1 17.2 6.7 37 8.2 NNW 22 28 12 15 1017.4 1015.2 0.0
25/02:30am 22.2 17.0 7.2 38 8.0 NNW 24 30 13 16 1017.5 1015.3 0.0
25/02:00am 22.3 17.5 7.3 38 8.0 NNW 22 30 12 16 1017.7 1015.6 0.0
25/01:30am 21.0 16.4 8.3 44 6.9 NW 22 26 12 14 1017.9 1015.8 0.0
25/01:00am 22.0 18.3 7.8 40 7.7 NW 17 20 9 11 1018.0 1015.9 0.0
25/12:30am 22.4 18.7 7.8 39 7.9 NNW 17 19 9 10 1018.3 1016.2 0.0
25/12:00am 23.7 19.3 7.3 35 8.9 NNW 20 30 11 16 1018.4 1016.3 0.0
 
Date/Time
EDT
Temp
°C
App
Temp
°C
Dew
Point
Rel
Hum
%
Delta-T
°C
Wind Press
QNH
hPa
Press
MSL
hPa
Rain
since 9 am
mm
Dir
 
Spd
km/h
Gust
km/h
Spd
kts
Gust
kts
24/11:30pm 24.3 21.3 7.9 35 9.0 WNW 13 15 7 8 1019.0 1016.9 0.0
24/11:00pm 24.4 19.3 7.5 34 9.2 NNW 24 30 13 16 1018.0 1015.9 0.0
24/10:30pm 25.2 19.6 7.3 32 9.8 NW 26 35 14 19 1017.8 1015.7 0.0
24/10:00pm 25.4 18.6 7.1 31 9.9 N 32 44 17 24 1017.3 1015.1 0.0
24/09:30pm 25.4 19.8 7.1 31 9.9 N 26 39 14 21 1017.5 1015.3 0.0
24/09:00pm 25.5 20.3 7.1 31 10.0 N 24 33 13 18 1017.6 1015.4 0.0
24/08:30pm 25.7 20.0 6.8 30 10.2 N 26 35 14 19 1017.4 1015.2 0.0
24/08:00pm 25.8 20.5 6.9 30 10.3 N 24 35 13 19 1017.5 1015.3 0.0
24/07:30pm 26.0 21.4 6.6 29 10.5 N 20 32 11 17 1017.4 1015.2 0.0
24/07:00pm 26.6 20.4 6.1 27 11.0 NNW 28 33 15 18 1017.1 1015.0 0.0
24/06:30pm 27.1 20.1 6.0 26 11.4 NNW 32 44 17 24 1016.9 1014.8 0.0
24/06:00pm 27.5 20.0 6.3 26 11.5 NNW 35 48 19 26 1017.0 1014.9 0.0
24/05:30pm 27.7 20.5 5.9 25 11.8 NNW 33 44 18 24 1017.1 1015.0 0.0
24/05:00pm 28.0 20.9 6.2 25 11.8 NNW 33 44 18 24 1017.5 1015.3 0.0
24/04:30pm 28.1 20.2 6.2 25 11.9 NNW 37 50 20 27 1017.7 1015.6 0.0
24/04:00pm 28.2 22.4 6.3 25 11.9 NNW 26 35 14 19 1018.1 1016.0 0.0
24/03:30pm 26.6 18.6 5.5 26 11.2 NW 37 44 20 24 1018.3 1016.2 0.0
24/03:14pm 27.4 20.7 5.6 25 11.7 NW 30 48 16 26 1018.4 1016.3 0.0
24/03:00pm 27.7 20.2 6.5 26 11.5 NW 35 46 19 25 1018.8 1016.6 0.0
24/02:33pm 27.4 21.2 6.2 26 11.5 NNW 28 48 15 26 1019.3 1017.2 0.0
24/02:30pm 26.5 19.8 5.5 26 11.2 NNW 30 39 16 21 1019.6 1017.5 0.0
24/02:00pm 27.0 20.9 6.4 27 11.1 NW 28 39 15 21 1020.2 1018.1 0.0
24/01:30pm 26.1 20.6 7.7 31 10.1 NW 26 32 14 17 1020.6 1018.5 0.0
24/01:00pm 26.0 21.4 8.0 32 9.9 NW 22 30 12 16 1021.2 1019.1 0.0
24/12:30pm 25.2 20.1 7.8 33 9.6 N 24 33 13 18 1021.5 1019.5 0.0
24/12:00pm 24.8 20.6 8.3 35 9.1 N 20 30 11 16 1021.9 1019.8 0.0
24/11:30am 24.3 21.4 9.5 39 8.3 NNW 15 22 8 12 1022.6 1020.6 0.0
24/11:00am 23.2 21.8 10.9 46 7.0 SSE 9 13 5 7 1023.3 1021.2 0.0
24/10:30am 20.8 19.1 11.2 54 5.5 E 11 13 6 7 1023.9 1021.9 0.0
24/10:00am 23.9 21.0 8.3 37 8.6 NNW 13 19 7 10 1023.1 1021.0 0.0
24/09:30am 22.3 21.8 12.5 53 5.8 ESE 7 11 4 6 1022.7 1020.7 0.0
24/09:00am 21.0 20.9 10.8 52 5.8 W 2 6 1 3 1022.8 1020.8 0.0
24/08:30am 17.9 15.4 11.0 64 3.9 SE 15 19 8 10 1023.3 1021.2 0.0
24/08:00am 15.3 11.6 10.3 72 2.7 SE 20 24 11 13 1023.3 1021.2 0.0
24/07:30am 13.9 9.6 9.5 75 2.3 ESE 22 28 12 15 1023.1 1021.0 0.0
24/07:00am 13.0 8.3 7.9 71 2.6 ESE 22 24 12 13 1022.3 1020.2 0.0
24/06:30am 16.5 11.7 9.0 61 4.0 SE 24 32 13 17 1023.3 1021.2 0.0
24/06:00am 15.2 11.4 7.5 60 4.0 ESE 17 20 9 11 1022.9 1020.9 0.0
24/05:30am 16.2 13.7 6.6 53 4.9 SE 9 15 5 8 1021.7 1019.6 0.0
24/05:00am 19.1 17.0 6.6 44 6.5 E 7 9 4 5 1021.3 1019.3 0.0
24/04:30am 18.6 16.1 6.4 45 6.3 SE 9 11 5 6 1021.2 1019.1 0.0
24/04:00am 19.4 18.5 6.2 42 6.8 CALM 0 6 0 3 1020.8 1018.7 0.0
24/03:30am 19.7 17.2 6.4 42 6.9 W 9 11 5 6 1020.8 1018.7 0.0
24/03:00am 19.5 16.7 6.9 44 6.6 W 11 15 6 8 1020.9 1018.8 0.0
24/02:30am 19.6 17.1 6.7 43 6.7 NW 9 13 5 7 1021.0 1018.9 0.0
24/02:00am 19.4 17.0 6.8 44 6.6 W 9 13 5 7 1021.2 1019.1 0.0
24/01:30am 18.8 15.5 6.6 45 6.3 WNW 13 15 7 8 1021.7 1019.6 0.0
24/01:00am 19.2 16.0 7.0 45 6.4 NW 13 17 7 9 1022.1 1020.0 0.0
24/12:30am 19.0 16.2 6.8 45 6.4 WNW 11 15 6 8 1022.3 1020.2 0.0
24/12:00am 18.9 18.2 7.0 46 6.2 CALM 0 0 0 0 1022.3 1020.2 0.0
 
Date/Time
EDT
Temp
°C
App
Temp
°C
Dew
Point
Rel
Hum
%
Delta-T
°C
Wind Press
QNH
hPa
Press
MSL
hPa
Rain
since 9 am
mm
Dir
 
Spd
km/h
Gust
km/h
Spd
kts
Gust
kts
23/11:30pm 18.9 15.9 7.7 48 5.9 ESE 13 15 7 8 1022.3 1020.2 0.0
23/11:00pm 18.9 16.4 8.3 50 5.7 SE 11 13 6 7 1022.2 1020.1 0.0
23/10:30pm 18.9 16.9 8.6 51 5.5 E 9 11 5 6 1022.1 1020.0 0.0
23/10:00pm 17.6 14.9 9.0 57 4.6 ESE 13 17 7 9 1022.0 1019.9 0.0
23/09:30pm 17.6 14.7 9.5 59 4.4 ESE 15 19 8 10 1021.9 1019.8 0.0
23/09:00pm 17.8 14.5 9.7 59 4.4 ESE 17 20 9 11 1021.2 1019.1 0.0
23/08:30pm 17.7 12.5 10.1 61 4.2 ESE 28 32 15 17 1020.7 1018.6 0.0
23/08:00pm 20.0 14.2 8.0 46 6.4 ESE 28 35 15 19 1021.5 1019.5 0.0
23/07:30pm 22.4 17.6 5.8 34 8.7 SE 20 30 11 16 1020.9 1018.8 0.0
23/07:00pm 23.4 20.0 7.5 36 8.6 WSW 15 20 8 11 1020.0 1018.0 0.0
23/06:30pm 24.1 21.1 7.7 35 8.9 NNW 13 17 7 9 1019.1 1017.0 0.0
23/06:00pm 24.5 21.3 8.5 36 8.9 NNW 15 19 8 10 1018.9 1016.8 0.0
23/05:30pm 25.2 23.1 8.2 34 9.4 NNE 9 22 5 12 1018.9 1016.8 0.0
23/05:00pm 26.3 24.6 8.3 32 10.0 NNW 7 13 4 7 1018.7 1016.5 0.0
23/04:30pm 26.0 24.9 7.1 30 10.3 SW 2 7 1 4 1018.7 1016.5 0.0
23/04:00pm 25.6 22.0 6.7 30 10.2 S 15 20 8 11 1018.5 1016.4 0.0
23/03:30pm 25.9 21.9 6.5 29 10.5 SSE 17 22 9 12 1018.5 1016.4 0.0
23/03:00pm 26.5 23.1 7.5 30 10.4 SSW 15 22 8 12 1018.8 1016.6 0.0
23/02:30pm 26.7 24.3 8.6 32 10.2 SW 11 24 6 13 1019.4 1017.3 0.0
23/02:00pm 26.0 23.3 8.9 34 9.6 WNW 13 17 7 9 1020.0 1018.0 0.0
23/01:30pm 24.9 20.4 8.4 35 9.2 NW 22 28 12 15 1020.5 1018.4 0.0
23/01:00pm 26.0 23.3 8.9 34 9.6 W 13 22 7 12 1020.9 1018.8 0.0
23/12:30pm 25.7 22.8 9.5 36 9.2 NW 15 28 8 15 1021.4 1019.4 0.0
23/12:00pm 23.9 20.5 9.1 39 8.2 NW 17 24 9 13 1021.9 1019.8 0.0
23/11:30am 23.2 18.9 9.2 41 7.8 NW 22 32 12 17 1022.2 1020.1 0.0
23/11:00am 22.3 18.4 9.5 44 7.1 NW 20 28 11 15 1022.2 1020.1 0.0
23/10:30am 21.3 16.1 8.9 45 6.8 NNW 26 30 14 16 1022.3 1020.2 0.0
23/10:00am 21.2 16.3 8.5 44 6.9 NW 24 33 13 18 1022.4 1020.3 0.0
23/09:30am 20.7 15.8 8.4 45 6.7 NW 24 30 13 16 1022.1 1020.0 0.0
23/09:00am 19.8 14.0 7.9 46 6.3 NW 28 33 15 18 1022.0 1019.9 0.0
23/08:30am 19.8 15.6 8.2 47 6.2 NNW 20 26 11 14 1022.0 1019.9 0.0
23/08:00am 18.9 14.1 7.4 47 6.0 NNW 22 28 12 15 1021.8 1019.7 0.0
23/07:30am 18.6 15.1 7.1 47 6.0 NW 15 19 8 10 1021.8 1019.7 0.0
23/07:00am 17.6 13.6 6.5 48 5.7 NW 17 22 9 12 1021.7 1019.6 0.0
23/06:30am 17.5 12.5 6.4 48 5.7 NW 22 26 12 14 1021.3 1019.3 0.0
23/06:00am 16.8 11.8 6.3 50 5.3 NW 22 24 12 13 1021.1 1019.0 0.0
23/05:30am 17.2 12.2 6.4 49 5.5 NW 22 24 12 13 1020.8 1018.7 0.0
23/05:00am 16.8 11.8 6.6 51 5.2 NW 22 24 12 13 1020.7 1018.6 0.0
23/04:30am 17.4 13.0 6.6 49 5.5 NW 19 20 10 11 1020.7 1018.6 0.0
23/04:00am 17.7 13.4 6.9 49 5.6 NNW 19 22 10 12 1020.8 1018.7 0.0
23/03:30am 17.2 12.8 7.3 52 5.2 NW 20 22 11 12 1021.0 1018.9 0.0
23/03:00am 17.0 12.8 7.6 54 4.9 NNW 19 22 10 12 1021.2 1019.1 0.0
23/02:30am 17.6 13.4 7.4 51 5.3 NW 19 22 10 12 1021.2 1019.1 0.0
23/02:00am 18.5 14.3 7.3 48 5.9 NW 19 20 10 11 1021.3 1019.3 0.0
23/01:30am 19.1 15.2 7.2 46 6.3 NW 17 19 9 10 1021.4 1019.4 0.0
23/01:00am 19.3 15.8 7.4 46 6.3 WNW 15 17 8 9 1021.8 1019.7 0.0
23/12:30am 19.8 16.8 7.5 45 6.5 WNW 13 15 7 8 1021.9 1019.8 0.0
23/12:00am 18.9 16.3 7.7 48 5.9 WNW 11 13 6 7 1022.2 1020.1 0.0
 
Date/Time
EDT
Temp
°C
App
Temp
°C
Dew
Point
Rel
Hum
%
Delta-T
°C
Wind Press
QNH
hPa
Press
MSL
hPa
Rain
since 9 am
mm
Dir
 
Spd
km/h
Gust
km/h
Spd
kts
Gust
kts
22/11:30pm 19.1 18.5 7.2 46 6.3 CALM 0 4 0 2 1022.2 1020.1 0.0
22/11:00pm 18.9 17.0 7.4 47 6.0 ESE 7 9 4 5 1022.3 1020.2 0.0
22/10:30pm 18.8 16.5 7.6 48 5.9 ESE 9 11 5 6 1022.5 1020.5 0.0
22/10:00pm 18.3 15.8 8.0 51 5.4 ESE 11 13 6 7 1022.6 1020.6 0.0
22/09:30pm 18.0 15.2 8.6 54 5.0 ESE 13 15 7 8 1022.4 1020.3 0.0
22/09:00pm 18.1 15.3 8.7 54 5.0 ESE 13 15 7 8 1022.3 1020.2 0.0
22/08:30pm 18.4 15.6 8.7 53 5.2 ESE 13 15 7 8 1022.2 1020.1 0.0
22/08:00pm 18.8 15.7 8.7 52 5.4 SSE 15 20 8 11 1022.2 1020.1 0.0
22/07:30pm 19.9 16.4 8.6 48 6.1 SE 17 20 9 11 1022.0 1019.9 0.0
22/07:00pm 20.3 16.8 8.6 47 6.3 SE 17 20 9 11 1021.9 1019.8 0.0
22/06:30pm 21.1 17.5 8.4 44 6.9 SE 17 22 9 12 1022.0 1019.9 0.0
22/06:00pm 21.7 17.7 8.2 42 7.3 ESE 19 22 10 12 1022.0 1019.9 0.0

Other Formats:

Comma delimited format used in spreadsheet applications
http://www.bom.gov.au/fwo/IDN60801/IDN60801.95747.axf

JavaScript Object Notation format (JSON) in row-major order
http://www.bom.gov.au/fwo/IDN60801/IDN60801.95747.json